Time;durP1;ratioP1;P1;durP2;ratioP2;P2;SDS_P1;SDS_P2;PMS_P1;PMS_P2;Temp;Humidity;BMP_temperature;BMP_pressure;BME280_temperature;BME280_humidity;BME280_pressure;Samples;Min_cycle;Max_cycle;Signal;HPM_P1;HPM_P2
2022/11/16 00:00:02;;;;;;;12.67;12.03;;;11.70;1.00;;;;;;4880037;29;20504;-83
2022/11/16 00:02:34;;;;;;;12.40;11.90;;;11.70;99.90;;;;;;4878394;29;20870;-83
2022/11/16 00:05:02;;;;;;;12.43;11.83;;;11.60;99.90;;;;;;4883430;29;20955;-83
2022/11/16 00:07:30;;;;;;;12.23;11.70;;;11.70;99.90;;;;;;4887485;29;20482;-83
2022/11/16 00:09:58;;;;;;;11.97;11.47;;;11.60;99.90;;;;;;4882510;29;20547;-83
2022/11/16 00:12:28;;;;;;;11.40;11.00;;;11.70;99.90;;;;;;4883597;29;20468;-84
2022/11/16 00:14:56;;;;;;;12.20;11.60;;;11.70;99.90;;;;;;4884458;29;20463;-83
2022/11/16 00:17:24;;;;;;;11.90;11.40;;;11.60;70.70;;;;;;4885417;29;21113;-82
2022/11/16 00:19:52;;;;;;;11.43;11.03;;;11.60;99.90;;;;;;4879929;29;20563;-83
2022/11/16 00:22:20;;;;;;;11.43;11.03;;;11.60;99.90;;;;;;4880269;29;20455;-82
2022/11/16 00:24:49;;;;;;;11.93;11.43;;;11.60;99.90;;;;;;4882598;29;20560;-83
2022/11/16 00:27:17;;;;;;;11.83;11.33;;;11.50;99.90;;;;;;4882352;29;20596;-83
2022/11/16 00:29:46;;;;;;;12.13;11.63;;;11.40;99.90;;;;;;4883586;29;20532;-84
2022/11/16 00:32:14;;;;;;;12.97;12.40;;;11.50;99.90;;;;;;4885264;29;20470;-83
2022/11/16 00:34:42;;;;;;;12.67;11.97;;;11.50;99.90;;;;;;4881998;29;20525;-84
2022/11/16 00:37:10;;;;;;;12.50;12.00;;;11.40;99.90;;;;;;4896262;29;20462;-83
2022/11/16 00:39:39;;;;;;;12.77;12.03;;;11.40;99.90;;;;;;4882015;29;20492;-83
2022/11/16 00:42:07;;;;;;;12.10;11.67;;;11.20;99.90;;;;;;4880744;29;20866;-84
2022/11/16 00:44:35;;;;;;;12.60;12.00;;;11.30;1.00;;;;;;4882251;29;20467;-83
2022/11/16 00:47:05;;;;;;;12.00;11.50;;;11.30;30.40;;;;;;4885712;29;21487;-83
2022/11/16 00:49:33;;;;;;;12.30;11.67;;;11.30;1.00;;;;;;4884254;29;21561;-84
2022/11/16 00:52:01;;;;;;;13.10;12.40;;;11.30;41.00;;;;;;4883188;29;20518;-83
2022/11/16 00:54:29;;;;;;;12.13;11.63;;;11.30;99.90;;;;;;4880803;29;20941;-82
2022/11/16 00:56:57;;;;;;;12.00;11.30;;;11.30;1.00;;;;;;4880909;29;20606;-83
2022/11/16 00:59:25;;;;;;;12.60;12.00;;;11.40;99.90;;;;;;4883711;29;21012;-83
2022/11/16 01:01:54;;;;;;;12.23;11.67;;;11.30;99.90;;;;;;4880868;29;20518;-83
2022/11/16 01:04:23;;;;;;;11.70;11.30;;;11.30;1.00;;;;;;4885204;29;20615;-84
2022/11/16 01:06:51;;;;;;;12.20;11.70;;;11.20;39.00;;;;;;4882236;29;21421;-83
2022/11/16 01:09:19;;;;;;;11.80;11.20;;;11.20;1.00;;;;;;4882362;29;20608;-82
2022/11/16 01:14:33;;;;;;;12.70;12.10;;;11.30;1.00;;;;;;4882903;29;20551;-83
2022/11/16 01:17:01;;;;;;;12.40;11.90;;;11.20;99.90;;;;;;4882405;29;20470;-83
2022/11/16 01:19:31;;;;;;;11.63;11.13;;;11.20;1.00;;;;;;4881645;29;20470;-83
2022/11/16 01:21:59;;;;;;;11.87;11.37;;;11.10;99.90;;;;;;4881803;29;20802;-82
2022/11/16 01:24:27;;;;;;;11.47;11.07;;;11.20;1.00;;;;;;4878518;29;20558;-82
2022/11/16 01:26:57;;;;;;;11.30;10.80;;;11.20;1.00;;;;;;4882290;29;20479;-84
2022/11/16 01:29:25;;;;;;;11.43;10.93;;;11.10;1.00;;;;;;4881986;29;20548;-84
2022/11/16 01:31:54;;;;;;;12.00;11.07;;;11.20;99.90;;;;;;4886953;29;20550;-85
2022/11/16 01:34:22;;;;;;;11.37;10.87;;;11.30;99.90;;;;;;4881035;29;21050;-84
2022/11/16 01:36:52;;;;;;;10.90;10.50;;;11.20;99.90;;;;;;4884730;29;20504;-82
2022/11/16 01:39:20;;;;;;;11.47;11.00;;;11.20;1.00;;;;;;4885142;29;20455;-83
2022/11/16 01:41:48;;;;;;;11.27;10.87;;;11.10;13.20;;;;;;4886187;29;20746;-83
2022/11/16 01:44:58;;;;;;;10.80;10.50;;;11.10;99.90;;;;;;4883903;29;21026;-83
2022/11/16 01:47:26;;;;;;;10.93;10.63;;;11.20;99.90;;;;;;4886158;29;20574;-83
2022/11/16 01:50:02;;;;;;;11.30;10.90;;;11.20;99.90;;;;;;4888226;29;20464;-83
2022/11/16 01:52:34;;;;;;;11.73;11.33;;;11.20;99.90;;;;;;4890517;29;20460;-84
2022/11/16 01:55:03;;;;;;;12.23;11.67;;;11.20;99.90;;;;;;4896741;29;20460;-82
2022/11/16 01:57:39;;;;;;;10.83;10.53;;;11.20;99.90;;;;;;4892170;29;20452;-82
2022/11/16 02:00:10;;;;;;;10.83;10.53;;;11.20;99.90;;;;;;4896126;29;20560;-82
2022/11/16 02:02:38;;;;;;;11.57;11.10;;;11.20;99.90;;;;;;4898954;29;20455;-82
2022/11/16 02:05:08;;;;;;;11.77;11.37;;;11.30;99.90;;;;;;4894532;29;20495;-83
2022/11/16 02:11:09;;;;;;;11.47;11.17;;;11.20;1.00;;;;;;4905899;29;20471;-82
2022/11/16 02:13:47;;;;;;;10.80;10.50;;;11.30;1.00;;;;;;4898949;29;20522;-81
2022/11/16 02:16:29;;;;;;;11.30;11.00;;;11.30;1.00;;;;;;4891815;29;20531;-82
2022/11/16 02:19:08;;;;;;;11.03;10.73;;;11.30;1.00;;;;;;4889369;29;20473;-82
2022/11/16 02:21:41;;;;;;;10.90;10.70;;;11.30;1.00;;;;;;4885537;29;20547;-81
2022/11/16 02:24:36;;;;;;;11.77;11.17;;;11.30;1.00;;;;;;4887329;29;20463;-81
2022/11/16 02:27:43;;;;;;;12.07;11.67;;;11.40;1.00;;;;;;4887011;29;20545;-80
2022/11/16 02:30:13;;;;;;;11.83;11.43;;;11.30;1.00;;;;;;4883488;29;20916;-80
2022/11/16 02:32:48;;;;;;;11.93;11.63;;;11.30;1.00;;;;;;4886539;29;20478;-81
2022/11/16 02:35:20;;;;;;;11.87;11.57;;;11.30;1.00;;;;;;4892107;29;20514;-79
2022/11/16 02:37:52;;;;;;;11.73;11.43;;;11.30;1.00;;;;;;4883742;29;20579;-80
2022/11/16 02:40:23;;;;;;;12.17;11.77;;;11.20;1.00;;;;;;4884743;29;21188;-81
2022/11/16 02:42:54;;;;;;;13.00;12.50;;;11.30;1.00;;;;;;4887187;29;20463;-80
2022/11/16 02:45:27;;;;;;;12.00;11.70;;;11.30;1.00;;;;;;4881141;29;20472;-79
2022/11/16 02:48:01;;;;;;;12.83;12.43;;;11.20;1.00;;;;;;4890646;29;20988;-81
2022/11/16 02:50:31;;;;;;;12.30;12.00;;;11.30;1.00;;;;;;4888282;29;20491;-81
2022/11/16 02:52:59;;;;;;;12.60;12.20;;;11.30;1.00;;;;;;4889722;29;20530;-80
2022/11/16 02:55:30;;;;;;;12.53;12.23;;;11.20;1.00;;;;;;4888184;29;20468;-81
2022/11/16 02:57:59;;;;;;;12.50;12.20;;;11.20;1.00;;;;;;4886605;29;20507;-81
2022/11/16 03:00:35;;;;;;;13.03;12.63;;;11.20;1.00;;;;;;4887634;29;20984;-81
2022/11/16 03:03:15;;;;;;;12.93;12.53;;;11.30;1.00;;;;;;4879858;29;20562;-81
2022/11/16 03:05:48;;;;;;;12.80;12.50;;;11.30;1.00;;;;;;4884246;29;20981;-83
2022/11/16 03:08:22;;;;;;;12.50;12.20;;;11.30;1.00;;;;;;4883729;29;20498;-81
2022/11/16 03:13:41;;;;;;;13.10;12.60;;;11.30;1.00;;;;;;4888646;29;20463;-81
2022/11/16 03:16:17;;;;;;;12.93;12.53;;;11.40;1.00;;;;;;4886640;29;20463;-81
2022/11/16 03:18:48;;;;;;;12.70;12.30;;;11.40;1.00;;;;;;4887285;29;20459;-81
2022/11/16 03:21:24;;;;;;;12.93;12.40;;;11.40;1.00;;;;;;4886366;29;20519;-82
2022/11/16 03:23:53;;;;;;;13.20;12.80;;;11.40;1.00;;;;;;4888415;29;20462;-82
2022/11/16 03:26:26;;;;;;;12.90;12.50;;;11.30;1.00;;;;;;4891862;29;20465;-82
2022/11/16 03:29:01;;;;;;;13.20;12.80;;;11.30;1.00;;;;;;4887133;29;20487;-82
2022/11/16 03:31:36;;;;;;;13.30;12.80;;;11.30;1.00;;;;;;4888604;29;20479;-81
2022/11/16 03:34:08;;;;;;;13.50;13.10;;;11.30;1.00;;;;;;4882860;29;20503;-82
2022/11/16 03:36:39;;;;;;;13.27;12.97;;;11.30;1.00;;;;;;4887090;29;21684;-82
2022/11/16 03:39:13;;;;;;;13.60;13.10;;;11.30;1.00;;;;;;4899408;29;20540;-81
2022/11/16 03:41:43;;;;;;;14.03;13.47;;;11.30;1.00;;;;;;4888435;29;20528;-82
2022/11/16 03:44:14;;;;;;;13.40;13.00;;;11.40;1.00;;;;;;4887216;29;20464;-81
2022/11/16 03:46:45;;;;;;;13.60;13.20;;;11.40;1.00;;;;;;4889096;29;21093;-81
2022/11/16 03:49:13;;;;;;;13.53;13.13;;;11.40;1.00;;;;;;4903005;29;20461;-81
2022/11/16 03:51:41;;;;;;;13.27;12.97;;;11.40;1.00;;;;;;4885478;29;20478;-81
2022/11/16 03:54:09;;;;;;;13.27;12.97;;;11.40;1.00;;;;;;4888902;29;20656;-80
2022/11/16 03:56:38;;;;;;;13.97;13.60;;;11.40;1.00;;;;;;4887293;29;20514;-81
2022/11/16 03:59:06;;;;;;;13.77;13.37;;;11.40;1.00;;;;;;4883619;29;20464;-81
2022/11/16 04:01:34;;;;;;;13.93;13.53;;;11.40;1.00;;;;;;4900478;29;20570;-81
2022/11/16 04:24:10;;;;;;;13.77;13.37;;;11.40;1.00;;;;;;4890228;29;20472;-80
2022/11/16 04:26:17;;;;;;;14.07;13.67;;;11.30;1.00;;;;;;4885358;29;20464;-84
2022/11/16 04:28:44;;;;;;;14.53;14.03;;;11.30;1.00;;;;;;4885010;29;20498;-84
2022/11/16 04:39:33;;;;;;;15.27;14.70;;;11.40;1.00;;;;;;4861021;29;20506;-84
2022/11/16 04:42:18;;;;;;;16.00;15.40;;;11.40;1.00;;;;;;4883255;29;20566;-84
2022/11/16 04:47:32;;;;;;;14.83;14.33;;;11.40;1.00;;;;;;4886118;29;20466;-83
2022/11/16 04:50:00;;;;;;;15.33;14.83;;;11.40;1.00;;;;;;4884860;29;20487;-83
2022/11/16 04:52:30;;;;;;;16.43;15.83;;;11.30;1.00;;;;;;4883580;29;20468;-84
2022/11/16 04:54:58;;;;;;;16.10;15.50;;;11.20;1.00;;;;;;4882926;29;21006;-82
2022/11/16 04:57:26;;;;;;;16.80;16.10;;;11.20;1.00;;;;;;4881892;29;20457;-82
2022/11/16 04:59:54;;;;;;;16.17;15.57;;;11.20;1.00;;;;;;4881938;29;21027;-83
2022/11/16 05:02:22;;;;;;;16.87;16.10;;;11.20;1.00;;;;;;4879838;29;20567;-83
2022/11/16 05:04:50;;;;;;;15.17;14.67;;;11.20;1.00;;;;;;4882165;29;20573;-83
2022/11/16 05:07:18;;;;;;;15.70;15.10;;;11.20;1.00;;;;;;4881538;29;20456;-82
2022/11/16 05:09:49;;;;;;;15.30;14.70;;;11.20;1.00;;;;;;4882441;29;20475;-83
2022/11/16 05:12:20;;;;;;;15.20;14.70;;;11.30;1.00;;;;;;4882272;29;20976;-83
2022/11/16 05:14:48;;;;;;;15.60;15.00;;;11.30;1.00;;;;;;4883753;29;20582;-83
2022/11/16 05:17:17;;;;;;;15.20;14.70;;;11.30;1.00;;;;;;4885080;29;20461;-83
2022/11/16 05:22:31;;;;;;;15.50;15.00;;;11.20;1.00;;;;;;4882731;29;20575;-81
2022/11/16 05:25:01;;;;;;;14.90;14.33;;;11.20;1.00;;;;;;4880348;29;20935;-81
2022/11/16 05:27:30;;;;;;;15.50;15.00;;;11.20;12.60;;;;;;4881602;29;20477;-81
2022/11/16 05:29:59;;;;;;;15.50;15.00;;;11.20;17.50;;;;;;4876487;29;20483;-81
2022/11/16 05:32:27;;;;;;;15.27;14.77;;;11.20;20.30;;;;;;4878016;29;20524;-81
2022/11/16 05:34:56;;;;;;;15.70;15.20;;;11.20;21.00;;;;;;4877132;29;20535;-82
2022/11/16 05:37:25;;;;;;;15.70;15.23;;;11.20;17.00;;;;;;4886497;29;20456;-82
2022/11/16 05:39:55;;;;;;;15.20;14.80;;;11.20;14.90;;;;;;4884577;29;20577;-83
2022/11/16 05:42:25;;;;;;;15.60;15.10;;;11.20;14.50;;;;;;4885572;29;20476;-82
2022/11/16 05:44:53;;;;;;;15.77;15.00;;;11.10;12.20;;;;;;4887235;29;20503;-83
2022/11/16 05:47:21;;;;;;;15.47;15.00;;;11.10;9.60;;;;;;4888432;29;20469;-82
2022/11/16 05:49:50;;;;;;;15.83;15.30;;;11.10;12.70;;;;;;4889678;29;20486;-82
2022/11/16 05:52:18;;;;;;;15.80;15.30;;;11.10;12.40;;;;;;4889310;29;20462;-82
2022/11/16 05:54:46;;;;;;;16.00;15.50;;;11.20;7.60;;;;;;4886186;29;20481;-81
2022/11/16 05:57:16;;;;;;;15.70;15.20;;;11.20;7.00;;;;;;4884315;29;20460;-82
2022/11/16 05:59:45;;;;;;;15.23;14.73;;;11.10;9.30;;;;;;4885942;29;20543;-81
2022/11/16 06:02:14;;;;;;;16.00;15.40;;;11.10;12.00;;;;;;4885114;29;20564;-82
2022/11/16 06:04:42;;;;;;;16.07;15.57;;;11.10;4.50;;;;;;4889155;29;20464;-83
2022/11/16 06:07:10;;;;;;;16.37;15.77;;;11.10;9.70;;;;;;4885869;29;20514;-83
2022/11/16 06:09:38;;;;;;;15.90;15.30;;;11.20;3.90;;;;;;4891289;29;20480;-83
2022/11/16 06:12:08;;;;;;;15.97;15.47;;;11.20;1.00;;;;;;4884886;29;20492;-83
2022/11/16 06:14:36;;;;;;;15.77;15.27;;;11.20;1.00;;;;;;4888627;29;20472;-83
2022/11/16 06:17:05;;;;;;;15.67;15.20;;;11.20;1.00;;;;;;4893135;29;20562;-83
2022/11/16 06:19:35;;;;;;;15.80;15.40;;;11.20;1.00;;;;;;4890943;29;20467;-83
2022/11/16 06:22:03;;;;;;;16.50;15.80;;;11.20;1.00;;;;;;4888971;29;20550;-82
2022/11/16 06:24:31;;;;;;;16.67;16.07;;;11.10;2.60;;;;;;4889369;29;20475;-82
2022/11/16 06:26:59;;;;;;;17.57;17.00;;;11.10;7.00;;;;;;4892050;29;20496;-83
2022/11/16 06:29:27;;;;;;;17.80;17.10;;;11.20;7.50;;;;;;4888925;29;20459;-82
2022/11/16 06:31:55;;;;;;;17.40;16.70;;;11.10;10.00;;;;;;4884719;29;20470;-82
2022/11/16 06:34:25;;;;;;;16.67;16.07;;;11.10;5.30;;;;;;4881326;29;20495;-82
2022/11/16 06:36:53;;;;;;;16.33;15.80;;;11.10;14.50;;;;;;4882577;29;20470;-82
2022/11/16 06:39:21;;;;;;;18.00;17.00;;;11.10;17.80;;;;;;4882781;29;20471;-81
2022/11/16 06:41:49;;;;;;;17.20;16.60;;;11.10;14.60;;;;;;4877002;29;21235;-83
2022/11/16 06:44:17;;;;;;;16.43;15.93;;;11.10;12.10;;;;;;4889080;29;20466;-83
2022/11/16 06:46:45;;;;;;;16.80;16.30;;;11.10;14.00;;;;;;4882816;29;20555;-82
2022/11/16 06:49:13;;;;;;;17.10;16.50;;;11.20;12.80;;;;;;4881118;29;20516;-83
2022/11/16 06:51:43;;;;;;;16.93;16.33;;;11.20;11.40;;;;;;4879071;29;20611;-81
2022/11/16 06:54:11;;;;;;;15.87;15.47;;;11.20;16.80;;;;;;4877657;29;20517;-83
2022/11/16 06:56:39;;;;;;;16.33;15.83;;;11.20;1.00;;;;;;4879879;29;20468;-83
2022/11/16 06:59:07;;;;;;;15.67;15.23;;;11.30;1.00;;;;;;4883863;29;20454;-83
2022/11/16 07:01:35;;;;;;;16.03;15.53;;;11.30;1.00;;;;;;4877341;29;20483;-83
2022/11/16 07:04:03;;;;;;;16.10;15.70;;;11.40;1.00;;;;;;4877929;29;20486;-82
2022/11/16 07:06:32;;;;;;;16.13;15.63;;;11.40;1.00;;;;;;4887768;29;20498;-83
2022/11/16 07:09:01;;;;;;;16.87;16.37;;;11.40;1.00;;;;;;4884040;29;20460;-82
2022/11/16 07:11:30;;;;;;;17.37;16.70;;;11.40;1.00;;;;;;4884251;29;20531;-83
2022/11/16 07:13:58;;;;;;;17.30;16.70;;;11.40;1.00;;;;;;4886769;29;20511;-83
2022/11/16 07:16:26;;;;;;;17.27;16.47;;;11.40;1.00;;;;;;4884374;29;20860;-83
2022/11/16 07:18:56;;;;;;;16.27;15.77;;;11.40;1.00;;;;;;4884634;29;20501;-83
2022/11/16 07:21:25;;;;;;;16.30;15.80;;;11.40;1.00;;;;;;4879882;29;21058;-82
2022/11/16 07:23:53;;;;;;;17.20;16.60;;;11.40;1.00;;;;;;4888239;29;20560;-83
2022/11/16 07:26:23;;;;;;;16.30;15.70;;;11.40;1.00;;;;;;4882110;29;20462;-83
2022/11/16 07:28:51;;;;;;;16.17;15.73;;;11.40;1.00;;;;;;4881454;29;20463;-83
2022/11/16 07:31:19;;;;;;;15.73;15.33;;;11.40;1.00;;;;;;4887993;29;20503;-84
2022/11/16 07:33:47;;;;;;;15.20;14.83;;;11.40;1.00;;;;;;4885251;29;20450;-83
2022/11/16 07:36:15;;;;;;;15.80;15.40;;;11.40;1.00;;;;;;4887575;29;20464;-83
2022/11/16 07:38:44;;;;;;;15.43;15.03;;;11.50;1.00;;;;;;4885037;29;20450;-83
2022/11/16 07:41:17;;;;;;;15.20;14.80;;;11.60;1.00;;;;;;4883617;29;20534;-83
2022/11/16 07:43:47;;;;;;;15.50;15.00;;;11.50;1.00;;;;;;4888221;29;21006;-83
2022/11/16 07:46:22;;;;;;;15.33;14.93;;;11.50;1.00;;;;;;4884757;29;20475;-83
2022/11/16 07:49:13;;;;;;;15.50;14.90;;;11.60;1.00;;;;;;4885068;29;20491;-83
2022/11/16 07:51:42;;;;;;;15.40;15.00;;;11.60;1.00;;;;;;4882241;29;20561;-83
2022/11/16 07:54:12;;;;;;;16.43;15.80;;;11.70;1.00;;;;;;4885545;29;20975;-83
2022/11/16 07:56:40;;;;;;;15.90;15.50;;;11.60;99.90;;;;;;4882423;29;20492;-84
2022/11/16 07:59:10;;;;;;;15.53;15.00;;;11.60;99.90;;;;;;4882463;29;20467;-83
2022/11/16 08:01:38;;;;;;;15.37;14.87;;;11.70;99.90;;;;;;4888359;29;20533;-83
2022/11/16 08:04:06;;;;;;;15.57;14.97;;;11.80;99.90;;;;;;4887195;29;20478;-83
2022/11/16 08:06:34;;;;;;;15.00;14.60;;;11.90;99.90;;;;;;4885912;29;20887;-83
2022/11/16 08:09:03;;;;;;;15.30;14.90;;;12.00;99.90;;;;;;4882093;29;20468;-84
2022/11/16 08:11:31;;;;;;;15.27;14.87;;;12.00;1.00;;;;;;4888318;29;20493;-83
2022/11/16 08:13:59;;;;;;;15.87;15.47;;;12.10;1.00;;;;;;4884661;29;20444;-83
2022/11/16 08:16:31;;;;;;;16.30;15.80;;;12.20;99.90;;;;;;4883734;29;20471;-83
2022/11/16 08:19:01;;;;;;;16.27;15.63;;;12.10;99.90;;;;;;4884770;29;20475;-83
2022/11/16 08:21:29;;;;;;;14.80;14.40;;;12.20;99.90;;;;;;4883906;29;20578;-83
2022/11/16 08:23:57;;;;;;;16.00;15.50;;;12.00;1.00;;;;;;4883599;29;20487;-84
2022/11/16 08:26:27;;;;;;;14.70;14.40;;;12.10;99.90;;;;;;4891214;29;20470;-84
2022/11/16 08:28:56;;;;;;;15.00;14.60;;;12.10;1.00;;;;;;4900460;29;20456;-82
2022/11/16 08:31:26;;;;;;;15.20;14.70;;;12.10;1.00;;;;;;4903830;29;20493;-85
2022/11/16 08:33:56;;;;;;;15.23;14.83;;;12.10;1.00;;;;;;4901454;29;20449;-83
2022/11/16 08:36:25;;;;;;;15.40;15.00;;;12.00;1.00;;;;;;4904616;29;20511;-84
2022/11/16 08:38:53;;;;;;;15.30;14.90;;;12.00;99.90;;;;;;4902569;29;20439;-85
2022/11/16 08:41:23;;;;;;;15.63;15.23;;;12.00;99.90;;;;;;4906385;29;20476;-85
2022/11/16 08:43:52;;;;;;;15.33;14.93;;;11.90;99.90;;;;;;4902347;29;20485;-85
2022/11/16 08:46:21;;;;;;;14.50;14.07;;;11.90;99.90;;;;;;4889700;29;20526;-83
2022/11/16 08:48:49;;;;;;;14.90;14.50;;;11.80;99.90;;;;;;4882967;29;20455;-83
2022/11/16 08:51:19;;;;;;;14.50;14.20;;;11.70;1.00;;;;;;4879149;29;20470;-82
2022/11/16 08:53:49;;;;;;;15.20;14.70;;;11.80;99.90;;;;;;4881147;29;20882;-83
2022/11/16 08:56:18;;;;;;;15.10;14.80;;;11.70;99.90;;;;;;4882854;29;20457;-83
2022/11/16 08:58:47;;;;;;;15.03;14.70;;;11.70;99.90;;;;;;4884249;29;20471;-83
2022/11/16 09:01:21;;;;;;;15.30;14.90;;;11.80;1.00;;;;;;4883461;29;20491;-83
2022/11/16 09:03:51;;;;;;;14.77;14.33;;;11.80;99.90;;;;;;4881532;29;20484;-83
2022/11/16 09:06:22;;;;;;;14.53;14.13;;;11.90;10.10;;;;;;4883813;29;20532;-82
2022/11/16 09:08:53;;;;;;;15.60;15.20;;;12.10;1.00;;;;;;4878063;29;20498;-84
2022/11/16 09:11:23;;;;;;;16.43;15.93;;;12.30;99.90;;;;;;4879818;29;20526;-83
2022/11/16 09:13:53;;;;;;;16.20;15.80;;;12.40;99.90;;;;;;4881205;29;21048;-83
2022/11/16 09:16:22;;;;;;;16.07;15.73;;;12.70;99.90;;;;;;4880678;29;20452;-83
2022/11/16 09:18:51;;;;;;;16.60;16.20;;;13.00;1.00;;;;;;4880764;29;20572;-83
2022/11/16 09:21:23;;;;;;;21.13;20.00;;;13.30;75.10;;;;;;4875933;29;20504;-82
2022/11/16 09:23:52;;;;;;;17.00;16.57;;;14.00;1.00;;;;;;4878922;29;21009;-84
2022/11/16 09:26:21;;;;;;;15.80;15.30;;;14.00;1.00;;;;;;4877123;29;20875;-82
2022/11/16 09:28:55;;;;;;;16.00;15.10;;;13.70;1.00;;;;;;4882319;29;20497;-82
2022/11/16 09:31:26;;;;;;;15.50;15.10;;;13.40;19.20;;;;;;4877431;29;21078;-82
2022/11/16 09:33:57;;;;;;;15.90;15.50;;;13.30;99.90;;;;;;4875381;29;20489;-83
2022/11/16 09:36:28;;;;;;;14.53;14.23;;;13.30;99.90;;;;;;4879044;29;20457;-83
2022/11/16 09:38:57;;;;;;;15.20;14.90;;;13.20;1.00;;;;;;4877831;29;20465;-83
2022/11/16 09:41:56;;;;;;;15.13;14.57;;;13.10;99.90;;;;;;4879797;29;21072;-83
2022/11/16 09:44:52;;;;;;;14.97;14.23;;;13.20;99.90;;;;;;4879368;29;20492;-83
2022/11/16 09:47:24;;;;;;;14.70;14.23;;;13.00;99.90;;;;;;4879536;29;20469;-83
2022/11/16 09:49:53;;;;;;;14.37;13.80;;;13.00;39.40;;;;;;4882215;29;20483;-84
2022/11/16 09:52:34;;;;;;;15.60;15.20;;;12.90;99.90;;;;;;4884895;29;20460;-84
2022/11/16 09:55:22;;;;;;;15.50;15.20;;;13.10;99.90;;;;;;4882062;29;20466;-84
2022/11/16 09:57:53;;;;;;;16.93;16.03;;;13.30;99.90;;;;;;4878334;29;20473;-83
2022/11/16 10:00:23;;;;;;;16.20;15.60;;;13.40;1.00;;;;;;4882992;29;21265;-84
2022/11/16 10:03:02;;;;;;;16.50;16.10;;;13.30;1.00;;;;;;4884347;29;20459;-83
2022/11/16 10:05:37;;;;;;;16.57;16.17;;;13.30;99.90;;;;;;4886509;29;20491;-84
2022/11/16 10:08:15;;;;;;;17.83;17.33;;;13.80;99.90;;;;;;4885511;29;20461;-83
2022/11/16 10:10:53;;;;;;;15.60;15.20;;;13.70;67.20;;;;;;4887815;29;20486;-83
2022/11/16 10:13:37;;;;;;;15.80;15.40;;;13.50;99.90;;;;;;4883300;29;20537;-83
2022/11/16 10:16:15;;;;;;;16.37;15.57;;;13.40;99.90;;;;;;4881522;29;20496;-83
2022/11/16 10:18:52;;;;;;;16.23;15.73;;;13.30;99.90;;;;;;4883093;29;20464;-84
2022/11/16 10:21:50;;;;;;;14.90;14.50;;;13.00;1.00;;;;;;4885927;29;20495;-83
2022/11/16 10:24:39;;;;;;;17.70;16.90;;;12.90;1.00;;;;;;4883661;29;20495;-84
2022/11/16 10:27:23;;;;;;;15.30;14.90;;;12.80;99.90;;;;;;4892622;29;20549;-84
2022/11/16 10:29:59;;;;;;;15.67;14.97;;;12.70;1.00;;;;;;4889970;29;20489;-85
2022/11/16 10:32:30;;;;;;;14.73;14.33;;;12.80;1.00;;;;;;4892058;29;20472;-84
2022/11/16 10:35:04;;;;;;;14.33;13.80;;;12.80;1.00;;;;;;4891586;29;20459;-86
2022/11/16 10:37:35;;;;;;;15.10;14.63;;;12.80;1.00;;;;;;4900509;29;20463;-85
2022/11/16 10:40:18;;;;;;;16.53;15.93;;;12.70;1.00;;;;;;4893404;29;21382;-84
2022/11/16 10:42:53;;;;;;;16.93;16.50;;;13.80;81.50;;;;;;4889108;29;20464;-83
2022/11/16 10:45:28;;;;;;;17.03;16.63;;;14.50;1.00;;;;;;4881583;29;20483;-81
2022/11/16 10:48:01;;;;;;;18.03;17.43;;;15.30;99.90;;;;;;4894927;29;20475;-84
2022/11/16 10:50:34;;;;;;;17.87;17.07;;;15.90;52.00;;;;;;4883643;29;20559;-83
2022/11/16 10:53:03;;;;;;;17.27;16.73;;;16.20;1.00;;;;;;4881441;29;20935;-83
2022/11/16 10:55:33;;;;;;;16.80;16.30;;;16.30;1.00;;;;;;4885365;29;20544;-84
2022/11/16 10:58:03;;;;;;;16.47;16.07;;;16.50;1.00;;;;;;4881496;29;21104;-84
2022/11/16 11:00:36;;;;;;;17.90;17.33;;;17.00;1.00;;;;;;4880672;29;20489;-83
2022/11/16 11:03:05;;;;;;;15.23;14.83;;;17.70;99.90;;;;;;4878364;29;20470;-83
2022/11/16 11:05:35;;;;;;;15.20;14.80;;;18.50;99.90;;;;;;4896657;29;20579;-83
2022/11/16 11:08:06;;;;;;;13.53;13.13;;;19.20;99.90;;;;;;4880454;29;20476;-82
2022/11/16 11:10:37;;;;;;;12.33;12.03;;;19.90;99.90;;;;;;4878243;29;20549;-83
2022/11/16 11:13:23;;;;;;;11.57;11.37;;;18.60;99.90;;;;;;4877707;29;20452;-83
2022/11/16 11:15:52;;;;;;;9.47;9.27;;;18.10;99.90;;;;;;4880305;29;20459;-83
2022/11/16 11:18:26;;;;;;;9.60;9.20;;;17.50;99.90;;;;;;4880582;29;20541;-83
2022/11/16 11:21:07;;;;;;;9.67;9.47;;;17.10;99.90;;;;;;4879443;29;20485;-83
2022/11/16 11:23:42;;;;;;;9.37;8.97;;;16.90;99.90;;;;;;4879655;29;20462;-83
2022/11/16 11:26:27;;;;;;;9.67;9.27;;;16.90;99.90;;;;;;4880294;29;20543;-84
2022/11/16 11:29:15;;;;;;;9.43;9.13;;;17.00;99.90;;;;;;4881213;29;20985;-83
2022/11/16 11:31:47;;;;;;;7.80;7.60;;;16.90;99.90;;;;;;4879453;29;20479;-83
2022/11/16 11:34:19;;;;;;;7.20;6.90;;;16.50;99.90;;;;;;4874046;29;20468;-83
2022/11/16 11:36:50;;;;;;;8.00;7.80;;;16.00;99.90;;;;;;4880916;29;20863;-81
2022/11/16 11:39:43;;;;;;;7.90;7.70;;;15.80;99.90;;;;;;4885158;29;20501;-85
2022/11/16 11:42:33;;;;;;;8.50;8.10;;;15.60;99.90;;;;;;4884122;29;20481;-84
2022/11/16 11:45:05;;;;;;;9.20;9.00;;;15.50;99.90;;;;;;4896475;29;21374;-86
2022/11/16 11:47:44;;;;;;;8.70;8.40;;;15.70;99.90;;;;;;4896624;29;20471;-84
2022/11/16 11:50:41;;;;;;;8.53;8.20;;;15.90;99.90;;;;;;4897807;29;20491;-83
2022/11/16 11:53:35;;;;;;;8.67;8.47;;;15.90;99.90;;;;;;4895899;29;20465;-83
2022/11/16 11:56:04;;;;;;;7.55;7.35;;;15.80;99.90;;;;;;4879069;29;20452;-83
2022/11/16 11:58:38;;;;;;;8.03;7.80;;;15.60;99.90;;;;;;4875129;29;21037;-81
2022/11/16 12:01:28;;;;;;;8.93;8.53;;;15.50;99.90;;;;;;4879954;29;20489;-83
2022/11/16 12:04:16;;;;;;;7.63;7.20;;;15.50;99.90;;;;;;4877235;29;21158;-83
2022/11/16 12:06:52;;;;;;;7.73;7.43;;;15.50;99.90;;;;;;4874182;29;20459;-84
2022/11/16 12:09:34;;;;;;;7.93;7.63;;;15.50;99.90;;;;;;4878802;29;20475;-84
2022/11/16 12:12:14;;;;;;;8.40;8.00;;;15.40;99.90;;;;;;4881017;29;20474;-83
2022/11/16 12:15:00;;;;;;;7.30;7.10;;;15.20;99.90;;;;;;4881013;29;20462;-83
2022/11/16 12:17:40;;;;;;;7.30;7.10;;;15.10;99.90;;;;;;4877530;29;20515;-84
2022/11/16 12:20:21;;;;;;;7.70;7.30;;;15.00;99.90;;;;;;4879562;29;20502;-84
2022/11/16 12:23:23;;;;;;;7.07;6.77;;;14.90;99.90;;;;;;4880916;29;20477;-83
2022/11/16 12:25:59;;;;;;;6.50;6.30;;;15.10;99.90;;;;;;4879363;29;20485;-83
2022/11/16 12:28:51;;;;;;;7.30;7.00;;;15.20;99.90;;;;;;4879960;29;20546;-83
2022/11/16 12:31:37;;;;;;;7.00;6.67;;;15.40;99.90;;;;;;4876245;29;20478;-83
2022/11/16 12:34:15;;;;;;;6.23;5.93;;;15.40;99.90;;;;;;4880900;29;20459;-83
2022/11/16 12:36:52;;;;;;;6.77;6.47;;;15.40;99.90;;;;;;4878257;29;21053;-83
2022/11/16 12:39:24;;;;;;;5.73;5.53;;;15.30;99.90;;;;;;4880816;29;20461;-84
2022/11/16 12:42:21;;;;;;;6.00;5.80;;;15.40;99.90;;;;;;4880303;29;20554;-83
2022/11/16 12:45:15;;;;;;;5.80;5.60;;;15.40;99.90;;;;;;4882105;29;20479;-83
2022/11/16 12:48:03;;;;;;;5.13;5.03;;;15.50;99.90;;;;;;4880268;29;20538;-83
2022/11/16 12:50:43;;;;;;;4.70;4.60;;;15.50;99.90;;;;;;4888227;29;20489;-83
2022/11/16 12:53:27;;;;;;;5.00;4.80;;;15.60;99.90;;;;;;4879779;29;20468;-83
2022/11/16 12:56:08;;;;;;;5.27;4.97;;;15.70;99.90;;;;;;4882323;29;20531;-82
2022/11/16 12:58:55;;;;;;;5.23;4.97;;;15.70;99.90;;;;;;4877923;29;20471;-84
2022/11/16 13:01:31;;;;;;;4.87;4.67;;;15.80;99.90;;;;;;4878598;29;20579;-83
2022/11/16 13:04:07;;;;;;;5.40;5.10;;;15.70;99.90;;;;;;4877341;29;20447;-83
2022/11/16 13:06:40;;;;;;;5.60;5.30;;;15.70;99.90;;;;;;4877195;29;20487;-84
2022/11/16 13:09:13;;;;;;;5.20;4.90;;;15.80;99.90;;;;;;4882440;29;20971;-83
2022/11/16 13:11:44;;;;;;;5.13;4.93;;;15.80;99.90;;;;;;4878469;29;20490;-83
2022/11/16 13:14:16;;;;;;;6.17;5.70;;;15.90;99.90;;;;;;4881957;29;20951;-83
2022/11/16 13:16:46;;;;;;;5.33;5.10;;;15.90;99.90;;;;;;4883479;29;20551;-83
2022/11/16 13:19:17;;;;;;;5.30;5.10;;;15.90;99.90;;;;;;4880443;29;20461;-83
2022/11/16 13:21:51;;;;;;;5.10;4.90;;;15.90;99.90;;;;;;4882754;29;20495;-83
2022/11/16 13:24:47;;;;;;;4.83;4.73;;;15.90;99.90;;;;;;4885834;29;20469;-82
2022/11/16 13:27:23;;;;;;;5.10;4.80;;;15.80;99.90;;;;;;4877813;29;20496;-83
2022/11/16 13:29:59;;;;;;;4.37;4.10;;;15.80;99.90;;;;;;4880575;29;20482;-83
2022/11/16 13:32:41;;;;;;;4.40;4.20;;;15.60;99.90;;;;;;4884063;29;20459;-85
2022/11/16 13:35:16;;;;;;;4.30;4.10;;;15.40;99.90;;;;;;4881583;29;20886;-83
2022/11/16 13:37:47;;;;;;;5.00;4.60;;;15.20;99.90;;;;;;4881202;29;20545;-82
2022/11/16 13:40:29;;;;;;;4.60;4.50;;;15.10;99.90;;;;;;4880815;29;20478;-83
2022/11/16 13:43:16;;;;;;;5.13;4.73;;;15.10;99.90;;;;;;4877974;29;20459;-83
2022/11/16 13:45:55;;;;;;;4.60;4.20;;;15.10;99.90;;;;;;4876807;29;20519;-82